createdAt,value
2018-02-18T00:01:42.290Z,32.73
2018-02-18T00:06:46.897Z,32.80
2018-02-18T00:11:58.997Z,30.77
2018-02-18T00:17:04.257Z,32.87
2018-02-18T00:22:09.166Z,34.40
2018-02-18T00:27:13.392Z,35.43
2018-02-18T00:32:22.505Z,29.77
2018-02-18T00:37:28.277Z,30.10
2018-02-18T00:42:39.914Z,30.07
2018-02-18T00:47:44.797Z,31.20
2018-02-18T00:52:49.702Z,37.60
2018-02-18T00:57:54.549Z,39.97
2018-02-18T01:03:03.075Z,46.57
2018-02-18T01:08:06.893Z,43.87
2018-02-18T01:13:14.424Z,47.10
2018-02-18T01:18:19.078Z,59.10
2018-02-18T01:23:27.458Z,37.47
2018-02-18T01:28:32.313Z,28.57
2018-02-18T01:33:38.090Z,26.77
2018-02-18T01:38:41.706Z,31.67
2018-02-18T01:43:56.108Z,36.00
2018-02-18T01:49:01.461Z,29.30
2018-02-18T01:54:07.585Z,25.93
2018-02-18T01:59:11.821Z,27.90
2018-02-18T02:04:22.847Z,25.40
2018-02-18T02:09:28.034Z,28.00
2018-02-18T02:14:34.265Z,34.53
2018-02-18T02:19:39.539Z,29.63
2018-02-18T02:25:03.136Z,28.60
2018-02-18T02:30:08.035Z,30.77
2018-02-18T02:35:15.733Z,32.60
2018-02-18T02:40:21.558Z,36.17
2018-02-18T02:45:37.366Z,41.67
2018-02-18T02:50:41.753Z,36.53
2018-02-18T02:55:46.837Z,35.83
2018-02-18T03:00:50.805Z,33.77
2018-02-18T03:05:58.317Z,32.20
2018-02-18T03:11:02.744Z,34.70
2018-02-18T03:16:10.608Z,35.00
2018-02-18T03:21:16.410Z,37.07
2018-02-18T03:26:20.458Z,43.13
2018-02-18T03:31:27.230Z,33.53
2018-02-18T03:36:31.850Z,33.10
2018-02-18T03:41:40.701Z,36.50
2018-02-18T03:46:45.577Z,43.83
2018-02-18T03:51:53.313Z,45.67
2018-02-18T03:56:57.697Z,39.40
2018-02-18T04:02:03.218Z,40.20
2018-02-18T04:07:08.826Z,36.97
2018-02-18T04:12:17.013Z,38.30
2018-02-18T04:17:20.886Z,35.93
2018-02-18T04:22:28.169Z,36.13
2018-02-18T04:27:33.248Z,33.27
2018-02-18T04:32:40.705Z,50.70
2018-02-18T04:37:45.609Z,35.80
2018-02-18T04:42:56.641Z,30.30
2018-02-18T04:48:01.605Z,31.60
2018-02-18T04:53:09.769Z,32.70
2018-02-18T04:58:13.398Z,35.63
2018-02-18T05:03:36.216Z,34.03
2018-02-18T05:08:43.414Z,52.10
2018-02-18T05:13:54.596Z,38.27
2018-02-18T05:19:00.009Z,29.37
2018-02-18T05:24:05.094Z,36.30
2018-02-18T05:29:10.194Z,37.60
2018-02-18T05:34:28.209Z,41.50
2018-02-18T05:39:32.868Z,48.50
2018-02-18T05:44:41.113Z,48.50
2018-02-18T05:49:46.169Z,54.63
2018-02-18T05:54:55.179Z,47.73
2018-02-18T05:59:59.526Z,52.93
2018-02-18T06:05:14.317Z,51.40
2018-02-18T06:10:19.068Z,50.10
2018-02-18T06:15:23.750Z,53.53
2018-02-18T06:20:28.354Z,54.97
2018-02-18T06:25:34.411Z,58.40
2018-02-18T06:30:38.893Z,46.90
2018-02-18T06:35:55.080Z,57.17
2018-02-18T06:40:59.720Z,52.17
2018-02-18T06:46:03.879Z,43.27
2018-02-18T06:51:14.136Z,36.00
2018-02-18T06:56:20.431Z,36.30
2018-02-18T07:01:29.406Z,33.10
2018-02-18T07:06:34.246Z,35.60
2018-02-18T07:11:42.469Z,31.17
2018-02-18T07:16:47.855Z,29.83
2018-02-18T07:21:56.998Z,35.23
2018-02-18T07:27:02.058Z,39.83
2018-02-18T07:32:11.753Z,30.90
2018-02-18T07:37:16.561Z,26.60
2018-02-18T07:42:27.445Z,26.77
2018-02-18T07:47:33.617Z,21.00
2018-02-18T07:52:45.342Z,20.80
2018-02-18T07:57:50.902Z,18.33
2018-02-18T08:02:58.269Z,39.20
2018-02-18T08:08:01.671Z,37.03
2018-02-18T08:13:13.749Z,38.00
2018-02-18T08:18:18.727Z,18.27
2018-02-18T08:23:27.897Z,21.40
2018-02-18T08:28:33.560Z,25.30
2018-02-18T08:33:43.372Z,34.50
2018-02-18T08:38:46.961Z,32.40
2018-02-18T08:43:55.545Z,22.90
2018-02-18T08:48:59.078Z,18.87
2018-02-18T08:54:06.862Z,15.77
2018-02-18T08:59:10.414Z,20.93
2018-02-18T09:04:24.494Z,17.13
2018-02-18T09:09:29.149Z,14.77
2018-02-18T09:14:39.746Z,16.07
2018-02-18T09:19:44.567Z,19.70
2018-02-18T09:24:53.437Z,19.57
2018-02-18T09:29:57.916Z,14.87
2018-02-18T09:35:03.380Z,19.57
2018-02-18T09:40:09.014Z,21.03
2018-02-18T09:45:13.416Z,15.87
2018-02-18T09:50:17.334Z,15.70
2018-02-18T09:55:21.665Z,19.07
2018-02-18T10:00:27.095Z,18.90
2018-02-18T10:05:34.796Z,18.30
2018-02-18T10:10:39.511Z,18.23
2018-02-18T10:15:44.182Z,17.87
2018-02-18T10:20:53.616Z,16.43
2018-02-18T10:26:03.664Z,17.17
2018-02-18T10:31:08.518Z,18.30
2018-02-18T10:36:13.538Z,26.60
2018-02-18T10:41:18.611Z,17.13
2018-02-18T10:46:23.491Z,16.60
2018-02-18T10:51:32.251Z,17.67
2018-02-18T10:56:37.118Z,19.60
2018-02-18T11:01:46.103Z,16.60
2018-02-18T11:06:50.457Z,12.60
2018-02-18T11:11:55.233Z,14.73
2018-02-18T11:16:58.750Z,16.10
2018-02-18T11:22:07.485Z,16.77
2018-02-18T11:27:12.373Z,17.17
2018-02-18T11:32:20.821Z,16.80
2018-02-18T11:37:25.307Z,18.03
2018-02-18T11:42:33.367Z,17.70
2018-02-18T11:47:38.641Z,20.33
2018-02-18T11:52:47.388Z,19.47
2018-02-18T11:57:53.017Z,17.40
2018-02-18T12:02:58.016Z,14.00
2018-02-18T12:08:02.594Z,16.07
2018-02-18T12:13:08.686Z,16.23
2018-02-18T12:18:13.466Z,22.43
2018-02-18T12:23:19.078Z,33.40
2018-02-18T12:28:24.204Z,19.27
2018-02-18T12:33:34.067Z,19.73
2018-02-18T12:38:39.669Z,19.30
2018-02-18T12:43:47.893Z,17.57
2018-02-18T12:48:52.558Z,15.57
2018-02-18T12:54:07.404Z,23.93
2018-02-18T12:59:12.794Z,16.27
2018-02-18T13:04:21.561Z,15.57
2018-02-18T13:09:26.197Z,15.67
2018-02-18T13:14:36.606Z,15.20
2018-02-18T13:19:41.396Z,19.93
2018-02-18T13:24:47.182Z,16.77
2018-02-18T13:29:51.422Z,24.90
2018-02-18T13:34:56.566Z,21.07
2018-02-18T13:40:04.591Z,23.63
2018-02-18T13:45:09.451Z,26.70
2018-02-18T13:50:17.929Z,19.97
2018-02-18T13:55:23.075Z,21.03
2018-02-18T14:00:29.842Z,30.87
2018-02-18T14:05:35.278Z,25.17
2018-02-18T14:10:41.953Z,26.40
2018-02-18T14:15:47.398Z,24.37
2018-02-18T14:20:52.849Z,22.93
2018-02-18T14:25:58.305Z,25.80
2018-02-18T14:31:03.677Z,35.70
2018-02-18T14:36:08.450Z,25.67
2018-02-18T14:41:30.410Z,23.00
2018-02-18T14:52:25.974Z,52.03
2018-02-18T14:57:35.354Z,46.63
2018-02-18T15:02:40.002Z,16.30
2018-02-18T15:07:45.506Z,29.07
2018-02-18T15:12:53.446Z,40.77
2018-02-18T15:17:57.264Z,30.60
2018-02-18T15:23:05.907Z,31.03
2018-02-18T15:28:11.178Z,35.07
2018-02-18T15:33:16.714Z,23.73
2018-02-18T15:38:21.700Z,25.73
2018-02-18T15:43:31.731Z,37.33
2018-02-18T15:48:37.184Z,27.40
2018-02-18T15:53:41.333Z,36.43
2018-02-18T16:28:45.748Z,34.80
2018-02-18T16:33:52.285Z,29.73
2018-02-18T16:38:58.249Z,31.47
2018-02-18T16:44:10.545Z,36.17
2018-02-18T16:49:15.636Z,33.77
2018-02-18T16:54:20.903Z,43.53
2018-02-18T16:59:25.616Z,58.50
2018-02-18T17:04:30.219Z,31.00
2018-02-18T17:09:38.216Z,24.47
2018-02-18T17:14:43.471Z,33.73
2018-02-18T17:19:52.763Z,25.60
2018-02-18T17:24:58.233Z,50.67
2018-02-18T17:30:03.935Z,49.90
2018-02-18T17:35:08.834Z,45.60
2018-02-18T17:40:14.474Z,45.80
2018-02-18T17:45:19.090Z,35.77
2018-02-18T17:50:25.058Z,35.33
2018-02-18T17:55:30.448Z,41.50
2018-02-18T18:00:41.485Z,112.37
2018-02-18T18:05:46.097Z,44.50
2018-02-18T18:10:50.763Z,38.73
2018-02-18T18:15:56.164Z,42.87
2018-02-18T18:21:00.341Z,22.10
2018-02-18T18:26:05.152Z,32.40
2018-02-18T18:31:14.467Z,32.77
2018-02-18T18:36:19.566Z,30.17
2018-02-18T18:41:34.398Z,34.87
2018-02-18T18:46:38.619Z,30.60
2018-02-18T18:51:44.930Z,25.37
2018-02-18T19:14:45.523Z,33.33
2018-02-18T19:19:53.640Z,34.57
2018-02-18T19:24:58.678Z,31.80
2018-02-18T19:30:07.276Z,31.30
2018-02-18T19:35:14.734Z,27.57
2018-02-18T19:40:19.415Z,29.87
2018-02-18T19:45:24.247Z,28.63
2018-02-18T19:50:30.470Z,29.07
2018-02-18T19:55:35.615Z,28.07
2018-02-18T20:00:41.762Z,28.93
2018-02-18T20:05:46.683Z,28.60
2018-02-18T20:10:55.170Z,24.73
2018-02-18T20:16:00.046Z,27.53
2018-02-18T20:21:08.583Z,36.10
2018-02-18T20:26:12.460Z,39.70
2018-02-18T20:31:21.184Z,33.17
2018-02-18T20:36:26.612Z,39.10
2018-02-18T20:41:37.530Z,36.43
2018-02-18T20:46:42.023Z,40.57
2018-02-18T20:51:51.085Z,37.47
2018-02-18T20:56:55.854Z,28.20
2018-02-18T21:02:03.645Z,31.17
2018-02-18T21:07:07.502Z,30.73
2018-02-18T21:12:15.014Z,29.03
2018-02-18T21:17:21.134Z,32.33
2018-02-18T21:22:29.634Z,21.57
2018-02-18T21:27:34.926Z,19.20
2018-02-18T21:32:44.605Z,19.10
2018-02-18T21:37:49.870Z,35.23
2018-02-18T21:43:00.543Z,23.27
2018-02-18T21:48:04.902Z,25.17
2018-02-18T21:53:13.103Z,28.03
2018-02-18T21:58:17.745Z,23.00
2018-02-18T22:03:24.261Z,36.13
2018-02-18T22:08:28.799Z,20.97
2018-02-18T22:13:33.587Z,30.37
2018-02-18T22:18:45.001Z,20.77
2018-02-18T22:23:50.027Z,29.17
2018-02-18T22:28:57.955Z,30.20
2018-02-18T22:34:03.014Z,31.97
2018-02-18T22:39:11.005Z,22.80
2018-02-18T22:44:16.942Z,22.07
2018-02-18T22:49:22.069Z,24.13
2018-02-18T22:54:27.229Z,22.83
2018-02-18T22:59:35.458Z,28.43
2018-02-18T23:04:40.525Z,31.60
2018-02-18T23:09:49.900Z,36.27
2018-02-18T23:14:54.506Z,20.77
2018-02-18T23:20:03.265Z,22.80
2018-02-18T23:25:08.157Z,18.57
2018-02-18T23:30:16.120Z,25.13
2018-02-18T23:35:20.532Z,24.13
2018-02-18T23:40:25.481Z,17.13
2018-02-18T23:45:30.056Z,17.30
2018-02-18T23:50:36.135Z,18.60
2018-02-18T23:55:41.460Z,17.37
